sensor_id;sensor_type;location;lat;lon;timestamp;P1;durP1;ratioP1;P2;durP2;ratioP2
23113;SDS011;11726;50.122;8.832;2023-03-16T00:00:50;15.60;;;9.45;;
23113;SDS011;11726;50.122;8.832;2023-03-16T00:03:17;14.35;;;9.18;;
23113;SDS011;11726;50.122;8.832;2023-03-16T00:09:11;14.77;;;9.50;;
23113;SDS011;11726;50.122;8.832;2023-03-16T00:11:38;13.70;;;9.30;;
23113;SDS011;11726;50.122;8.832;2023-03-16T00:14:04;14.25;;;9.80;;
23113;SDS011;11726;50.122;8.832;2023-03-16T00:16:31;15.57;;;9.43;;
23113;SDS011;11726;50.122;8.832;2023-03-16T00:18:58;15.73;;;8.32;;
23113;SDS011;11726;50.122;8.832;2023-03-16T00:21:24;15.40;;;9.02;;
23113;SDS011;11726;50.122;8.832;2023-03-16T00:23:51;13.55;;;8.57;;
23113;SDS011;11726;50.122;8.832;2023-03-16T00:26:18;15.48;;;8.38;;
23113;SDS011;11726;50.122;8.832;2023-03-16T00:28:44;16.13;;;9.30;;
23113;SDS011;11726;50.122;8.832;2023-03-16T00:31:12;14.48;;;9.15;;
23113;SDS011;11726;50.122;8.832;2023-03-16T00:33:40;13.80;;;8.70;;
23113;SDS011;11726;50.122;8.832;2023-03-16T00:36:10;14.02;;;8.70;;
23113;SDS011;11726;50.122;8.832;2023-03-16T00:38:38;16.95;;;9.00;;
23113;SDS011;11726;50.122;8.832;2023-03-16T00:41:10;13.77;;;8.73;;
23113;SDS011;11726;50.122;8.832;2023-03-16T00:43:39;18.25;;;10.02;;
23113;SDS011;11726;50.122;8.832;2023-03-16T00:46:14;14.77;;;10.05;;
23113;SDS011;11726;50.122;8.832;2023-03-16T00:48:44;14.07;;;9.38;;
23113;SDS011;11726;50.122;8.832;2023-03-16T00:51:13;16.60;;;9.60;;
23113;SDS011;11726;50.122;8.832;2023-03-16T00:53:42;14.45;;;9.35;;
23113;SDS011;11726;50.122;8.832;2023-03-16T00:56:10;15.48;;;9.43;;
23113;SDS011;11726;50.122;8.832;2023-03-16T00:58:40;15.07;;;10.13;;
23113;SDS011;11726;50.122;8.832;2023-03-16T01:01:09;15.77;;;9.60;;
23113;SDS011;11726;50.122;8.832;2023-03-16T01:03:45;14.63;;;8.90;;
23113;SDS011;11726;50.122;8.832;2023-03-16T01:06:13;15.50;;;9.15;;
23113;SDS011;11726;50.122;8.832;2023-03-16T01:08:42;14.82;;;9.27;;
23113;SDS011;11726;50.122;8.832;2023-03-16T01:11:11;13.73;;;9.75;;
23113;SDS011;11726;50.122;8.832;2023-03-16T01:13:41;15.52;;;9.10;;
23113;SDS011;11726;50.122;8.832;2023-03-16T01:16:08;14.40;;;9.18;;
23113;SDS011;11726;50.122;8.832;2023-03-16T01:18:35;15.10;;;8.98;;
23113;SDS011;11726;50.122;8.832;2023-03-16T01:21:03;13.93;;;8.82;;
23113;SDS011;11726;50.122;8.832;2023-03-16T01:23:31;14.35;;;9.50;;
23113;SDS011;11726;50.122;8.832;2023-03-16T01:25:59;13.10;;;9.02;;
23113;SDS011;11726;50.122;8.832;2023-03-16T01:28:28;13.43;;;8.98;;
23113;SDS011;11726;50.122;8.832;2023-03-16T01:31:01;13.82;;;9.43;;
23113;SDS011;11726;50.122;8.832;2023-03-16T01:33:32;15.52;;;9.25;;
23113;SDS011;11726;50.122;8.832;2023-03-16T01:36:01;17.13;;;9.18;;
23113;SDS011;11726;50.122;8.832;2023-03-16T01:38:30;14.30;;;9.27;;
23113;SDS011;11726;50.122;8.832;2023-03-16T01:40:57;15.82;;;9.25;;
23113;SDS011;11726;50.122;8.832;2023-03-16T01:43:24;15.10;;;9.10;;
23113;SDS011;11726;50.122;8.832;2023-03-16T01:48:36;17.80;;;9.77;;
23113;SDS011;11726;50.122;8.832;2023-03-16T01:51:09;15.85;;;9.23;;
23113;SDS011;11726;50.122;8.832;2023-03-16T01:53:42;12.80;;;8.70;;
23113;SDS011;11726;50.122;8.832;2023-03-16T01:56:12;12.98;;;9.07;;
23113;SDS011;11726;50.122;8.832;2023-03-16T01:58:43;13.95;;;9.68;;
23113;SDS011;11726;50.122;8.832;2023-03-16T02:01:12;15.15;;;8.80;;
23113;SDS011;11726;50.122;8.832;2023-03-16T02:03:39;15.77;;;9.13;;
23113;SDS011;11726;50.122;8.832;2023-03-16T02:06:11;14.55;;;8.38;;
23113;SDS011;11726;50.122;8.832;2023-03-16T02:08:43;15.45;;;9.13;;
23113;SDS011;11726;50.122;8.832;2023-03-16T02:11:12;16.00;;;9.20;;
23113;SDS011;11726;50.122;8.832;2023-03-16T02:13:45;14.18;;;9.43;;
23113;SDS011;11726;50.122;8.832;2023-03-16T02:16:12;13.63;;;8.85;;
23113;SDS011;11726;50.122;8.832;2023-03-16T02:18:47;15.60;;;9.15;;
23113;SDS011;11726;50.122;8.832;2023-03-16T02:21:26;14.98;;;9.00;;
23113;SDS011;11726;50.122;8.832;2023-03-16T02:23:59;15.80;;;8.88;;
23113;SDS011;11726;50.122;8.832;2023-03-16T02:26:36;15.20;;;9.55;;
23113;SDS011;11726;50.122;8.832;2023-03-16T02:32:17;14.40;;;8.57;;
23113;SDS011;11726;50.122;8.832;2023-03-16T02:34:46;15.48;;;9.02;;
23113;SDS011;11726;50.122;8.832;2023-03-16T02:37:13;14.63;;;9.25;;
23113;SDS011;11726;50.122;8.832;2023-03-16T02:39:40;13.70;;;9.50;;
23113;SDS011;11726;50.122;8.832;2023-03-16T02:42:12;17.05;;;9.13;;
23113;SDS011;11726;50.122;8.832;2023-03-16T02:44:42;14.00;;;9.05;;
23113;SDS011;11726;50.122;8.832;2023-03-16T02:47:27;14.57;;;9.30;;
23113;SDS011;11726;50.122;8.832;2023-03-16T02:52:25;12.63;;;8.57;;
23113;SDS011;11726;50.122;8.832;2023-03-16T02:54:52;12.25;;;8.57;;
23113;SDS011;11726;50.122;8.832;2023-03-16T02:57:19;13.30;;;8.43;;
23113;SDS011;11726;50.122;8.832;2023-03-16T02:59:46;11.98;;;8.05;;
23113;SDS011;11726;50.122;8.832;2023-03-16T03:02:12;14.77;;;9.18;;
23113;SDS011;11726;50.122;8.832;2023-03-16T03:04:39;14.18;;;8.98;;
23113;SDS011;11726;50.122;8.832;2023-03-16T03:07:06;15.55;;;9.35;;
23113;SDS011;11726;50.122;8.832;2023-03-16T03:09:33;14.50;;;9.25;;
23113;SDS011;11726;50.122;8.832;2023-03-16T03:12:00;13.50;;;8.27;;
23113;SDS011;11726;50.122;8.832;2023-03-16T03:14:26;13.13;;;8.82;;
23113;SDS011;11726;50.122;8.832;2023-03-16T03:16:53;12.98;;;8.90;;
23113;SDS011;11726;50.122;8.832;2023-03-16T03:19:20;15.20;;;8.77;;
23113;SDS011;11726;50.122;8.832;2023-03-16T03:21:48;15.23;;;9.20;;
23113;SDS011;11726;50.122;8.832;2023-03-16T03:24:15;13.10;;;8.45;;
23113;SDS011;11726;50.122;8.832;2023-03-16T03:26:43;13.32;;;8.45;;
23113;SDS011;11726;50.122;8.832;2023-03-16T03:29:10;13.93;;;8.85;;
23113;SDS011;11726;50.122;8.832;2023-03-16T03:31:37;15.77;;;9.50;;
23113;SDS011;11726;50.122;8.832;2023-03-16T03:34:04;13.75;;;8.75;;
23113;SDS011;11726;50.122;8.832;2023-03-16T03:36:32;11.90;;;8.25;;
23113;SDS011;11726;50.122;8.832;2023-03-16T03:38:59;15.50;;;8.60;;
23113;SDS011;11726;50.122;8.832;2023-03-16T03:41:30;14.23;;;8.35;;
23113;SDS011;11726;50.122;8.832;2023-03-16T03:43:58;16.33;;;9.45;;
23113;SDS011;11726;50.122;8.832;2023-03-16T03:46:25;14.90;;;8.55;;
23113;SDS011;11726;50.122;8.832;2023-03-16T03:48:52;14.27;;;8.90;;
23113;SDS011;11726;50.122;8.832;2023-03-16T03:51:19;14.38;;;8.85;;
23113;SDS011;11726;50.122;8.832;2023-03-16T03:53:46;16.00;;;9.45;;
23113;SDS011;11726;50.122;8.832;2023-03-16T03:56:13;14.75;;;8.90;;
23113;SDS011;11726;50.122;8.832;2023-03-16T03:58:39;13.20;;;8.48;;
23113;SDS011;11726;50.122;8.832;2023-03-16T04:01:06;14.20;;;8.73;;
23113;SDS011;11726;50.122;8.832;2023-03-16T04:03:33;15.45;;;8.68;;
23113;SDS011;11726;50.122;8.832;2023-03-16T04:06:00;13.07;;;8.82;;
23113;SDS011;11726;50.122;8.832;2023-03-16T04:08:27;15.63;;;9.05;;
23113;SDS011;11726;50.122;8.832;2023-03-16T04:10:54;13.45;;;7.93;;
23113;SDS011;11726;50.122;8.832;2023-03-16T04:13:20;14.98;;;9.00;;
23113;SDS011;11726;50.122;8.832;2023-03-16T04:15:47;14.20;;;8.95;;
23113;SDS011;11726;50.122;8.832;2023-03-16T04:18:13;14.70;;;8.82;;
23113;SDS011;11726;50.122;8.832;2023-03-16T04:20:40;13.90;;;8.95;;
23113;SDS011;11726;50.122;8.832;2023-03-16T04:23:07;14.00;;;9.38;;
23113;SDS011;11726;50.122;8.832;2023-03-16T04:25:34;12.68;;;8.52;;
23113;SDS011;11726;50.122;8.832;2023-03-16T04:28:03;14.45;;;9.40;;
23113;SDS011;11726;50.122;8.832;2023-03-16T04:30:30;16.02;;;8.25;;
23113;SDS011;11726;50.122;8.832;2023-03-16T04:32:57;14.48;;;8.63;;
23113;SDS011;11726;50.122;8.832;2023-03-16T04:35:23;16.00;;;9.07;;
23113;SDS011;11726;50.122;8.832;2023-03-16T04:37:50;13.25;;;8.77;;
23113;SDS011;11726;50.122;8.832;2023-03-16T04:40:16;15.73;;;8.73;;
23113;SDS011;11726;50.122;8.832;2023-03-16T04:42:44;14.50;;;8.40;;
23113;SDS011;11726;50.122;8.832;2023-03-16T04:45:12;14.27;;;8.52;;
23113;SDS011;11726;50.122;8.832;2023-03-16T04:47:40;16.20;;;8.73;;
23113;SDS011;11726;50.122;8.832;2023-03-16T04:50:07;13.57;;;8.23;;
23113;SDS011;11726;50.122;8.832;2023-03-16T04:52:35;13.35;;;9.32;;
23113;SDS011;11726;50.122;8.832;2023-03-16T04:55:02;13.02;;;8.35;;
23113;SDS011;11726;50.122;8.832;2023-03-16T04:57:28;14.77;;;8.93;;
23113;SDS011;11726;50.122;8.832;2023-03-16T04:59:55;14.77;;;8.98;;
23113;SDS011;11726;50.122;8.832;2023-03-16T05:02:22;13.00;;;8.90;;
23113;SDS011;11726;50.122;8.832;2023-03-16T05:04:49;14.43;;;8.40;;
23113;SDS011;11726;50.122;8.832;2023-03-16T05:07:16;16.88;;;9.25;;
23113;SDS011;11726;50.122;8.832;2023-03-16T05:09:42;14.85;;;9.70;;
23113;SDS011;11726;50.122;8.832;2023-03-16T05:12:09;14.20;;;9.00;;
23113;SDS011;11726;50.122;8.832;2023-03-16T05:14:36;14.73;;;9.32;;
23113;SDS011;11726;50.122;8.832;2023-03-16T05:17:02;15.55;;;9.68;;
23113;SDS011;11726;50.122;8.832;2023-03-16T05:19:30;16.08;;;8.85;;
23113;SDS011;11726;50.122;8.832;2023-03-16T05:21:56;15.68;;;8.93;;
23113;SDS011;11726;50.122;8.832;2023-03-16T05:24:23;17.52;;;9.40;;
23113;SDS011;11726;50.122;8.832;2023-03-16T05:26:50;15.73;;;9.60;;
23113;SDS011;11726;50.122;8.832;2023-03-16T05:29:17;15.75;;;10.02;;
23113;SDS011;11726;50.122;8.832;2023-03-16T05:31:44;13.48;;;9.40;;
23113;SDS011;11726;50.122;8.832;2023-03-16T05:34:13;17.45;;;9.73;;
23113;SDS011;11726;50.122;8.832;2023-03-16T05:36:39;16.30;;;10.25;;
23113;SDS011;11726;50.122;8.832;2023-03-16T05:39:06;16.98;;;9.52;;
23113;SDS011;11726;50.122;8.832;2023-03-16T05:41:33;15.30;;;9.70;;
23113;SDS011;11726;50.122;8.832;2023-03-16T05:44:00;14.15;;;9.02;;
23113;SDS011;11726;50.122;8.832;2023-03-16T05:46:29;14.60;;;9.45;;
23113;SDS011;11726;50.122;8.832;2023-03-16T05:48:56;16.67;;;9.95;;
23113;SDS011;11726;50.122;8.832;2023-03-16T05:51:22;16.33;;;9.85;;
23113;SDS011;11726;50.122;8.832;2023-03-16T05:53:51;14.13;;;9.35;;
23113;SDS011;11726;50.122;8.832;2023-03-16T05:56:25;17.63;;;10.82;;
23113;SDS011;11726;50.122;8.832;2023-03-16T05:58:53;15.75;;;10.02;;
23113;SDS011;11726;50.122;8.832;2023-03-16T06:01:21;17.42;;;10.52;;
23113;SDS011;11726;50.122;8.832;2023-03-16T06:03:48;14.30;;;9.65;;
23113;SDS011;11726;50.122;8.832;2023-03-16T06:06:15;16.83;;;9.93;;
23113;SDS011;11726;50.122;8.832;2023-03-16T06:08:42;19.58;;;10.98;;
23113;SDS011;11726;50.122;8.832;2023-03-16T06:11:10;19.05;;;10.65;;
23113;SDS011;11726;50.122;8.832;2023-03-16T06:13:37;17.75;;;11.35;;
23113;SDS011;11726;50.122;8.832;2023-03-16T06:16:04;18.27;;;10.73;;
23113;SDS011;11726;50.122;8.832;2023-03-16T06:18:32;18.02;;;11.02;;
23113;SDS011;11726;50.122;8.832;2023-03-16T06:20:59;16.30;;;11.18;;
23113;SDS011;11726;50.122;8.832;2023-03-16T06:23:26;17.88;;;11.27;;
23113;SDS011;11726;50.122;8.832;2023-03-16T06:25:52;19.52;;;12.48;;
23113;SDS011;11726;50.122;8.832;2023-03-16T06:28:24;20.65;;;12.75;;
23113;SDS011;11726;50.122;8.832;2023-03-16T06:30:52;19.83;;;12.70;;
23113;SDS011;11726;50.122;8.832;2023-03-16T06:33:20;20.95;;;12.57;;
23113;SDS011;11726;50.122;8.832;2023-03-16T06:35:46;20.13;;;13.00;;
23113;SDS011;11726;50.122;8.832;2023-03-16T06:38:13;20.98;;;12.52;;
23113;SDS011;11726;50.122;8.832;2023-03-16T06:40:40;16.25;;;10.95;;
23113;SDS011;11726;50.122;8.832;2023-03-16T06:43:07;19.48;;;11.43;;
23113;SDS011;11726;50.122;8.832;2023-03-16T06:45:33;18.15;;;11.73;;
23113;SDS011;11726;50.122;8.832;2023-03-16T06:48:00;18.50;;;12.38;;
23113;SDS011;11726;50.122;8.832;2023-03-16T06:50:27;23.08;;;12.25;;
23113;SDS011;11726;50.122;8.832;2023-03-16T06:52:54;17.73;;;12.20;;
23113;SDS011;11726;50.122;8.832;2023-03-16T06:55:21;22.40;;;13.65;;
23113;SDS011;11726;50.122;8.832;2023-03-16T06:57:47;21.38;;;12.40;;
23113;SDS011;11726;50.122;8.832;2023-03-16T07:00:14;21.67;;;12.57;;
23113;SDS011;11726;50.122;8.832;2023-03-16T07:02:41;19.85;;;12.38;;
23113;SDS011;11726;50.122;8.832;2023-03-16T07:05:09;18.35;;;12.10;;
23113;SDS011;11726;50.122;8.832;2023-03-16T07:07:41;21.00;;;13.20;;
23113;SDS011;11726;50.122;8.832;2023-03-16T07:10:09;19.70;;;12.80;;
23113;SDS011;11726;50.122;8.832;2023-03-16T07:12:40;19.98;;;13.25;;
23113;SDS011;11726;50.122;8.832;2023-03-16T07:15:07;20.20;;;12.88;;
23113;SDS011;11726;50.122;8.832;2023-03-16T07:17:35;22.38;;;13.55;;
23113;SDS011;11726;50.122;8.832;2023-03-16T07:20:02;19.80;;;12.65;;
23113;SDS011;11726;50.122;8.832;2023-03-16T07:22:31;21.92;;;12.93;;
23113;SDS011;11726;50.122;8.832;2023-03-16T07:24:58;20.02;;;13.20;;
23113;SDS011;11726;50.122;8.832;2023-03-16T07:27:24;16.88;;;11.60;;
23113;SDS011;11726;50.122;8.832;2023-03-16T07:29:51;17.75;;;11.75;;
23113;SDS011;11726;50.122;8.832;2023-03-16T07:32:18;18.42;;;12.52;;
23113;SDS011;11726;50.122;8.832;2023-03-16T07:34:44;17.80;;;12.25;;
23113;SDS011;11726;50.122;8.832;2023-03-16T07:37:11;16.83;;;11.60;;
23113;SDS011;11726;50.122;8.832;2023-03-16T07:39:38;17.67;;;12.40;;
23113;SDS011;11726;50.122;8.832;2023-03-16T07:42:05;19.23;;;11.95;;
23113;SDS011;11726;50.122;8.832;2023-03-16T07:44:31;13.95;;;9.93;;
23113;SDS011;11726;50.122;8.832;2023-03-16T07:46:58;13.45;;;10.07;;
23113;SDS011;11726;50.122;8.832;2023-03-16T07:49:25;13.73;;;10.25;;
23113;SDS011;11726;50.122;8.832;2023-03-16T07:51:51;15.15;;;9.38;;
23113;SDS011;11726;50.122;8.832;2023-03-16T07:54:18;15.35;;;9.10;;
23113;SDS011;11726;50.122;8.832;2023-03-16T07:56:45;11.85;;;9.32;;
23113;SDS011;11726;50.122;8.832;2023-03-16T07:59:14;12.55;;;8.48;;
23113;SDS011;11726;50.122;8.832;2023-03-16T08:01:41;12.27;;;8.30;;
23113;SDS011;11726;50.122;8.832;2023-03-16T08:04:08;10.35;;;7.88;;
23113;SDS011;11726;50.122;8.832;2023-03-16T08:06:37;9.93;;;7.82;;
23113;SDS011;11726;50.122;8.832;2023-03-16T08:09:04;10.75;;;8.15;;
23113;SDS011;11726;50.122;8.832;2023-03-16T08:11:31;10.35;;;7.03;;
23113;SDS011;11726;50.122;8.832;2023-03-16T08:13:57;9.18;;;7.05;;
23113;SDS011;11726;50.122;8.832;2023-03-16T08:16:24;9.30;;;7.25;;
23113;SDS011;11726;50.122;8.832;2023-03-16T08:18:54;10.60;;;8.10;;
23113;SDS011;11726;50.122;8.832;2023-03-16T08:21:22;10.73;;;7.75;;
23113;SDS011;11726;50.122;8.832;2023-03-16T08:23:49;9.52;;;7.50;;
23113;SDS011;11726;50.122;8.832;2023-03-16T08:26:18;11.27;;;7.53;;
23113;SDS011;11726;50.122;8.832;2023-03-16T08:28:46;10.38;;;7.80;;
23113;SDS011;11726;50.122;8.832;2023-03-16T08:31:17;9.60;;;7.65;;
23113;SDS011;11726;50.122;8.832;2023-03-16T08:33:45;9.23;;;7.47;;
23113;SDS011;11726;50.122;8.832;2023-03-16T08:36:13;9.93;;;7.15;;
23113;SDS011;11726;50.122;8.832;2023-03-16T08:38:41;9.15;;;7.22;;
23113;SDS011;11726;50.122;8.832;2023-03-16T08:41:25;9.55;;;7.65;;
23113;SDS011;11726;50.122;8.832;2023-03-16T08:43:55;10.30;;;7.50;;
23113;SDS011;11726;50.122;8.832;2023-03-16T08:46:24;9.98;;;7.30;;
23113;SDS011;11726;50.122;8.832;2023-03-16T08:48:54;10.38;;;7.88;;
23113;SDS011;11726;50.122;8.832;2023-03-16T08:51:23;10.18;;;7.32;;
23113;SDS011;11726;50.122;8.832;2023-03-16T08:53:50;10.80;;;7.95;;
23113;SDS011;11726;50.122;8.832;2023-03-16T08:56:16;9.77;;;7.97;;
23113;SDS011;11726;50.122;8.832;2023-03-16T08:58:43;9.25;;;7.72;;
23113;SDS011;11726;50.122;8.832;2023-03-16T09:01:12;9.25;;;7.70;;
23113;SDS011;11726;50.122;8.832;2023-03-16T09:03:40;8.85;;;7.60;;
23113;SDS011;11726;50.122;8.832;2023-03-16T09:06:09;9.15;;;7.38;;
23113;SDS011;11726;50.122;8.832;2023-03-16T09:08:37;8.75;;;7.10;;
23113;SDS011;11726;50.122;8.832;2023-03-16T09:11:09;10.85;;;7.63;;
23113;SDS011;11726;50.122;8.832;2023-03-16T09:13:39;9.02;;;7.50;;
23113;SDS011;11726;50.122;8.832;2023-03-16T09:16:07;9.65;;;7.80;;
23113;SDS011;11726;50.122;8.832;2023-03-16T09:18:37;9.88;;;6.95;;
23113;SDS011;11726;50.122;8.832;2023-03-16T09:21:06;10.73;;;7.40;;
23113;SDS011;11726;50.122;8.832;2023-03-16T09:23:35;9.73;;;7.90;;
23113;SDS011;11726;50.122;8.832;2023-03-16T09:26:06;8.95;;;6.97;;
23113;SDS011;11726;50.122;8.832;2023-03-16T09:28:34;9.95;;;7.50;;
23113;SDS011;11726;50.122;8.832;2023-03-16T09:31:04;9.75;;;7.50;;
23113;SDS011;11726;50.122;8.832;2023-03-16T09:33:32;9.85;;;8.00;;
23113;SDS011;11726;50.122;8.832;2023-03-16T09:35:59;9.55;;;7.50;;
23113;SDS011;11726;50.122;8.832;2023-03-16T09:38:27;9.50;;;7.28;;
23113;SDS011;11726;50.122;8.832;2023-03-16T09:40:56;10.90;;;7.95;;
23113;SDS011;11726;50.122;8.832;2023-03-16T09:43:50;8.90;;;7.55;;
23113;SDS011;11726;50.122;8.832;2023-03-16T09:46:42;9.70;;;6.90;;
23113;SDS011;11726;50.122;8.832;2023-03-16T09:49:11;9.00;;;7.05;;
23113;SDS011;11726;50.122;8.832;2023-03-16T09:51:43;8.48;;;7.38;;
23113;SDS011;11726;50.122;8.832;2023-03-16T09:57:27;10.23;;;7.32;;
23113;SDS011;11726;50.122;8.832;2023-03-16T09:59:57;9.15;;;7.43;;
23113;SDS011;11726;50.122;8.832;2023-03-16T10:05:37;10.13;;;7.25;;
23113;SDS011;11726;50.122;8.832;2023-03-16T10:08:11;9.18;;;6.60;;
23113;SDS011;11726;50.122;8.832;2023-03-16T10:10:55;7.80;;;7.00;;
23113;SDS011;11726;50.122;8.832;2023-03-16T10:13:59;10.68;;;6.95;;
23113;SDS011;11726;50.122;8.832;2023-03-16T10:19:15;9.63;;;7.32;;
23113;SDS011;11726;50.122;8.832;2023-03-16T10:21:53;7.68;;;6.50;;
23113;SDS011;11726;50.122;8.832;2023-03-16T10:24:38;9.52;;;7.22;;
23113;SDS011;11726;50.122;8.832;2023-03-16T10:27:21;9.45;;;6.55;;
23113;SDS011;11726;50.122;8.832;2023-03-16T10:29:53;6.47;;;5.78;;
23113;SDS011;11726;50.122;8.832;2023-03-16T10:32:21;9.80;;;6.50;;
23113;SDS011;11726;50.122;8.832;2023-03-16T10:35:05;8.18;;;6.50;;
23113;SDS011;11726;50.122;8.832;2023-03-16T10:37:39;6.85;;;5.90;;
23113;SDS011;11726;50.122;8.832;2023-03-16T10:40:07;10.02;;;6.90;;
23113;SDS011;11726;50.122;8.832;2023-03-16T10:42:37;7.55;;;6.47;;
23113;SDS011;11726;50.122;8.832;2023-03-16T10:45:04;7.15;;;6.20;;
23113;SDS011;11726;50.122;8.832;2023-03-16T10:47:32;9.07;;;6.47;;
23113;SDS011;11726;50.122;8.832;2023-03-16T10:50:10;7.82;;;6.00;;
23113;SDS011;11726;50.122;8.832;2023-03-16T10:52:44;6.97;;;6.00;;
23113;SDS011;11726;50.122;8.832;2023-03-16T10:55:18;6.80;;;5.97;;
23113;SDS011;11726;50.122;8.832;2023-03-16T10:57:53;6.70;;;5.80;;
23113;SDS011;11726;50.122;8.832;2023-03-16T11:00:21;7.20;;;6.00;;
23113;SDS011;11726;50.122;8.832;2023-03-16T11:02:52;8.48;;;5.95;;
23113;SDS011;11726;50.122;8.832;2023-03-16T11:05:24;6.60;;;5.50;;
23113;SDS011;11726;50.122;8.832;2023-03-16T11:10:36;7.07;;;5.95;;
23113;SDS011;11726;50.122;8.832;2023-03-16T11:13:20;6.85;;;6.15;;
23113;SDS011;11726;50.122;8.832;2023-03-16T11:15:54;7.53;;;6.10;;
23113;SDS011;11726;50.122;8.832;2023-03-16T11:21:01;8.55;;;6.10;;
23113;SDS011;11726;50.122;8.832;2023-03-16T11:23:45;8.45;;;6.35;;
23113;SDS011;11726;50.122;8.832;2023-03-16T11:26:23;8.52;;;6.35;;
23113;SDS011;11726;50.122;8.832;2023-03-16T11:28:59;7.72;;;6.20;;
23113;SDS011;11726;50.122;8.832;2023-03-16T11:31:51;8.93;;;6.53;;
23113;SDS011;11726;50.122;8.832;2023-03-16T11:34:23;8.90;;;6.32;;
23113;SDS011;11726;50.122;8.832;2023-03-16T11:36:54;8.38;;;6.82;;
23113;SDS011;11726;50.122;8.832;2023-03-16T11:42:29;8.93;;;7.15;;
23113;SDS011;11726;50.122;8.832;2023-03-16T11:45:12;7.88;;;6.70;;
23113;SDS011;11726;50.122;8.832;2023-03-16T11:57:22;7.85;;;6.35;;
23113;SDS011;11726;50.122;8.832;2023-03-16T12:05:31;7.80;;;6.82;;
23113;SDS011;11726;50.122;8.832;2023-03-16T12:10:50;7.57;;;6.30;;
23113;SDS011;11726;50.122;8.832;2023-03-16T12:16:03;7.07;;;5.97;;
23113;SDS011;11726;50.122;8.832;2023-03-16T12:18:44;8.02;;;6.55;;
23113;SDS011;11726;50.122;8.832;2023-03-16T12:21:18;6.70;;;6.03;;
23113;SDS011;11726;50.122;8.832;2023-03-16T12:23:51;8.75;;;6.35;;
23113;SDS011;11726;50.122;8.832;2023-03-16T12:26:35;9.10;;;6.40;;
23113;SDS011;11726;50.122;8.832;2023-03-16T12:29:08;9.77;;;6.82;;
23113;SDS011;11726;50.122;8.832;2023-03-16T12:32:20;6.43;;;5.72;;
23113;SDS011;11726;50.122;8.832;2023-03-16T12:35:05;6.93;;;6.22;;
23113;SDS011;11726;50.122;8.832;2023-03-16T12:40:42;7.10;;;5.72;;
23113;SDS011;11726;50.122;8.832;2023-03-16T12:43:34;6.65;;;5.95;;
23113;SDS011;11726;50.122;8.832;2023-03-16T12:46:08;6.75;;;6.05;;
23113;SDS011;11726;50.122;8.832;2023-03-16T12:48:42;9.45;;;5.93;;
23113;SDS011;11726;50.122;8.832;2023-03-16T12:51:41;6.80;;;5.88;;
23113;SDS011;11726;50.122;8.832;2023-03-16T12:54:22;7.35;;;5.30;;
23113;SDS011;11726;50.122;8.832;2023-03-16T12:56:51;10.02;;;6.10;;
23113;SDS011;11726;50.122;8.832;2023-03-16T12:59:24;9.32;;;6.20;;
23113;SDS011;11726;50.122;8.832;2023-03-16T13:02:13;5.97;;;5.25;;
23113;SDS011;11726;50.122;8.832;2023-03-16T13:04:45;7.97;;;5.55;;
23113;SDS011;11726;50.122;8.832;2023-03-16T13:07:18;8.93;;;5.63;;
23113;SDS011;11726;50.122;8.832;2023-03-16T13:09:58;7.28;;;5.18;;
23113;SDS011;11726;50.122;8.832;2023-03-16T13:12:32;5.93;;;5.28;;
23113;SDS011;11726;50.122;8.832;2023-03-16T13:17:49;8.57;;;5.90;;
23113;SDS011;11726;50.122;8.832;2023-03-16T13:20:29;8.18;;;6.20;;
23113;SDS011;11726;50.122;8.832;2023-03-16T13:29:05;6.13;;;5.53;;
23113;SDS011;11726;50.122;8.832;2023-03-16T13:31:44;7.72;;;5.50;;
23113;SDS011;11726;50.122;8.832;2023-03-16T13:34:12;7.20;;;5.20;;
23113;SDS011;11726;50.122;8.832;2023-03-16T13:36:44;5.78;;;5.18;;
23113;SDS011;11726;50.122;8.832;2023-03-16T13:44:27;7.60;;;4.90;;
23113;SDS011;11726;50.122;8.832;2023-03-16T13:46:55;5.93;;;4.80;;
23113;SDS011;11726;50.122;8.832;2023-03-16T13:49:22;7.20;;;5.80;;
23113;SDS011;11726;50.122;8.832;2023-03-16T13:51:49;6.68;;;4.90;;
23113;SDS011;11726;50.122;8.832;2023-03-16T13:54:26;6.90;;;4.78;;
23113;SDS011;11726;50.122;8.832;2023-03-16T13:56:56;7.30;;;5.20;;
23113;SDS011;11726;50.122;8.832;2023-03-16T13:59:25;5.82;;;4.45;;
23113;SDS011;11726;50.122;8.832;2023-03-16T14:01:55;8.23;;;5.00;;
23113;SDS011;11726;50.122;8.832;2023-03-16T14:04:27;7.45;;;5.63;;
23113;SDS011;11726;50.122;8.832;2023-03-16T14:06:56;6.10;;;5.45;;
23113;SDS011;11726;50.122;8.832;2023-03-16T14:09:31;7.68;;;5.00;;
23113;SDS011;11726;50.122;8.832;2023-03-16T14:11:59;6.20;;;4.65;;
23113;SDS011;11726;50.122;8.832;2023-03-16T14:14:30;7.03;;;4.72;;
23113;SDS011;11726;50.122;8.832;2023-03-16T14:17:02;6.35;;;4.80;;
23113;SDS011;11726;50.122;8.832;2023-03-16T14:19:37;5.38;;;4.88;;
23113;SDS011;11726;50.122;8.832;2023-03-16T14:22:17;6.75;;;4.60;;
23113;SDS011;11726;50.122;8.832;2023-03-16T14:24:52;7.00;;;4.85;;
23113;SDS011;11726;50.122;8.832;2023-03-16T14:27:25;5.30;;;4.47;;
23113;SDS011;11726;50.122;8.832;2023-03-16T14:29:59;6.65;;;4.90;;
23113;SDS011;11726;50.122;8.832;2023-03-16T14:32:29;5.93;;;4.65;;
23113;SDS011;11726;50.122;8.832;2023-03-16T14:35:16;6.82;;;4.93;;
23113;SDS011;11726;50.122;8.832;2023-03-16T14:37:46;5.72;;;4.70;;
23113;SDS011;11726;50.122;8.832;2023-03-16T14:40:28;6.72;;;4.78;;
23113;SDS011;11726;50.122;8.832;2023-03-16T14:42:57;5.18;;;4.65;;
23113;SDS011;11726;50.122;8.832;2023-03-16T14:45:29;5.35;;;4.20;;
23113;SDS011;11726;50.122;8.832;2023-03-16T14:48:02;5.55;;;4.47;;
23113;SDS011;11726;50.122;8.832;2023-03-16T14:50:32;7.35;;;3.97;;
23113;SDS011;11726;50.122;8.832;2023-03-16T14:52:59;4.55;;;3.40;;
23113;SDS011;11726;50.122;8.832;2023-03-16T14:55:28;4.30;;;3.30;;
23113;SDS011;11726;50.122;8.832;2023-03-16T14:57:55;4.45;;;3.50;;
23113;SDS011;11726;50.122;8.832;2023-03-16T15:00:22;5.20;;;3.67;;
23113;SDS011;11726;50.122;8.832;2023-03-16T15:02:53;5.03;;;4.00;;
23113;SDS011;11726;50.122;8.832;2023-03-16T15:05:23;4.68;;;3.78;;
23113;SDS011;11726;50.122;8.832;2023-03-16T15:07:56;5.93;;;3.85;;
23113;SDS011;11726;50.122;8.832;2023-03-16T15:10:24;6.05;;;4.15;;
23113;SDS011;11726;50.122;8.832;2023-03-16T15:12:55;6.93;;;3.83;;
23113;SDS011;11726;50.122;8.832;2023-03-16T15:15:31;7.20;;;3.80;;
23113;SDS011;11726;50.122;8.832;2023-03-16T15:17:57;4.00;;;3.40;;
23113;SDS011;11726;50.122;8.832;2023-03-16T15:20:28;7.25;;;3.50;;
23113;SDS011;11726;50.122;8.832;2023-03-16T15:22:59;3.50;;;2.90;;
23113;SDS011;11726;50.122;8.832;2023-03-16T15:25:30;5.43;;;3.33;;
23113;SDS011;11726;50.122;8.832;2023-03-16T15:28:05;4.85;;;3.60;;
23113;SDS011;11726;50.122;8.832;2023-03-16T15:30:36;4.88;;;3.47;;
23113;SDS011;11726;50.122;8.832;2023-03-16T15:33:04;3.83;;;3.15;;
23113;SDS011;11726;50.122;8.832;2023-03-16T15:35:31;4.53;;;3.60;;
23113;SDS011;11726;50.122;8.832;2023-03-16T15:37:58;7.18;;;3.63;;
23113;SDS011;11726;50.122;8.832;2023-03-16T15:40:27;4.82;;;3.50;;
23113;SDS011;11726;50.122;8.832;2023-03-16T15:42:54;5.22;;;3.40;;
23113;SDS011;11726;50.122;8.832;2023-03-16T15:45:21;4.43;;;3.15;;
23113;SDS011;11726;50.122;8.832;2023-03-16T15:47:50;3.75;;;3.00;;
23113;SDS011;11726;50.122;8.832;2023-03-16T15:50:19;5.10;;;3.20;;
23113;SDS011;11726;50.122;8.832;2023-03-16T15:52:55;4.30;;;2.90;;
23113;SDS011;11726;50.122;8.832;2023-03-16T15:55:45;3.78;;;2.63;;
23113;SDS011;11726;50.122;8.832;2023-03-16T15:58:15;4.60;;;3.45;;
23113;SDS011;11726;50.122;8.832;2023-03-16T16:00:45;4.90;;;3.22;;
23113;SDS011;11726;50.122;8.832;2023-03-16T16:03:13;4.50;;;3.17;;